香港 の空港の天気 - METARとTAF

香港国際空港 ( VHHH / HKG ) - 香港 赤リョウ角
飛行場実況気象(Metar)
観測時間10/20 02:00 HKT (10/19 18:00 UTC)
風向・風速東 8m/s
視程10km以上
天気現象
少しの雲 雲底高度 670m
全天の4割程度の雲 雲底高度 910m
気温25℃
湿度74%
気圧1018hPa
METARVHHH 191800Z 09015KT 9999 FEW022 SCT030 25/20 Q1018 NOSIG
過去の天気等 Google飛行場航空写真 Wunderground天気予報

過去48時間のMETAR

飛行場予報(TAF)
発表時間: 10/20 01:00 HKT (10/19 17:00 UTC)
予報対象時間: 20日2時 HKT ~ 21日8時 HKT
風向・風速東 8m/s
視程10km以上
少しの雲 雲底高度 610m
全天の4割程度の雲 雲底高度 910m
TAF VHHH 191700Z 1918/2024 09015KT 9999 FEW020 SCT030 TX29/2006Z TN24/1922Z TN24/2022Z